sensor_id;sensor_type;location;lat;lon;timestamp;P1;durP1;ratioP1;P2;durP2;ratioP2
81209;SDS011;70685;52.496;13.420;2023-07-29T00:00:58;8.70;;;7.97;;
81209;SDS011;70685;52.496;13.420;2023-07-29T00:03:26;9.90;;;9.07;;
81209;SDS011;70685;52.496;13.420;2023-07-29T00:05:55;11.70;;;9.90;;
81209;SDS011;70685;52.496;13.420;2023-07-29T00:08:20;11.30;;;9.43;;
81209;SDS011;70685;52.496;13.420;2023-07-29T00:10:51;10.77;;;9.88;;
81209;SDS011;70685;52.496;13.420;2023-07-29T00:13:21;12.82;;;8.70;;
81209;SDS011;70685;52.496;13.420;2023-07-29T00:15:47;12.00;;;10.90;;
81209;SDS011;70685;52.496;13.420;2023-07-29T00:18:13;11.73;;;10.50;;
81209;SDS011;70685;52.496;13.420;2023-07-29T00:20:38;9.68;;;8.70;;
81209;SDS011;70685;52.496;13.420;2023-07-29T00:23:04;12.43;;;9.30;;
81209;SDS011;70685;52.496;13.420;2023-07-29T00:25:32;10.55;;;9.73;;
81209;SDS011;70685;52.496;13.420;2023-07-29T00:28:03;9.98;;;9.23;;
81209;SDS011;70685;52.496;13.420;2023-07-29T00:30:28;10.45;;;9.25;;
81209;SDS011;70685;52.496;13.420;2023-07-29T00:32:54;20.50;;;10.68;;
81209;SDS011;70685;52.496;13.420;2023-07-29T00:35:22;12.20;;;8.57;;
81209;SDS011;70685;52.496;13.420;2023-07-29T00:37:50;9.13;;;8.52;;
81209;SDS011;70685;52.496;13.420;2023-07-29T00:40:22;9.05;;;8.30;;
81209;SDS011;70685;52.496;13.420;2023-07-29T00:42:52;9.07;;;8.48;;
81209;SDS011;70685;52.496;13.420;2023-07-29T00:45:18;9.60;;;8.68;;
81209;SDS011;70685;52.496;13.420;2023-07-29T00:47:46;12.97;;;10.67;;
81209;SDS011;70685;52.496;13.420;2023-07-29T00:50:13;10.13;;;9.13;;
81209;SDS011;70685;52.496;13.420;2023-07-29T00:52:41;21.58;;;10.10;;
81209;SDS011;70685;52.496;13.420;2023-07-29T00:55:07;12.43;;;10.25;;
81209;SDS011;70685;52.496;13.420;2023-07-29T00:57:33;11.40;;;10.30;;
81209;SDS011;70685;52.496;13.420;2023-07-29T01:00:00;11.15;;;10.07;;
81209;SDS011;70685;52.496;13.420;2023-07-29T01:02:29;9.90;;;8.95;;
81209;SDS011;70685;52.496;13.420;2023-07-29T01:04:58;10.38;;;9.43;;
81209;SDS011;70685;52.496;13.420;2023-07-29T01:07:30;11.43;;;10.15;;
81209;SDS011;70685;52.496;13.420;2023-07-29T01:10:08;11.50;;;10.48;;
81209;SDS011;70685;52.496;13.420;2023-07-29T01:13:10;12.40;;;10.85;;
81209;SDS011;70685;52.496;13.420;2023-07-29T01:15:43;10.27;;;9.20;;
81209;SDS011;70685;52.496;13.420;2023-07-29T01:20:53;13.13;;;9.75;;
81209;SDS011;70685;52.496;13.420;2023-07-29T01:23:23;14.13;;;10.05;;
81209;SDS011;70685;52.496;13.420;2023-07-29T01:25:50;12.45;;;10.07;;
81209;SDS011;70685;52.496;13.420;2023-07-29T01:28:15;16.92;;;12.23;;
81209;SDS011;70685;52.496;13.420;2023-07-29T01:30:41;17.33;;;11.82;;
81209;SDS011;70685;52.496;13.420;2023-07-29T01:36:08;20.95;;;14.48;;
81209;SDS011;70685;52.496;13.420;2023-07-29T01:38:43;18.85;;;13.45;;
81209;SDS011;70685;52.496;13.420;2023-07-29T01:41:09;17.30;;;11.52;;
81209;SDS011;70685;52.496;13.420;2023-07-29T01:43:38;14.40;;;11.27;;
81209;SDS011;70685;52.496;13.420;2023-07-29T01:46:12;16.23;;;11.80;;
81209;SDS011;70685;52.496;13.420;2023-07-29T01:48:39;13.60;;;12.20;;
81209;SDS011;70685;52.496;13.420;2023-07-29T01:51:10;13.30;;;11.88;;
81209;SDS011;70685;52.496;13.420;2023-07-29T01:53:39;16.80;;;10.68;;
81209;SDS011;70685;52.496;13.420;2023-07-29T01:56:07;13.82;;;10.45;;
81209;SDS011;70685;52.496;13.420;2023-07-29T01:58:33;16.58;;;12.93;;
81209;SDS011;70685;52.496;13.420;2023-07-29T02:00:58;11.82;;;10.73;;
81209;SDS011;70685;52.496;13.420;2023-07-29T02:03:26;12.95;;;11.75;;
81209;SDS011;70685;52.496;13.420;2023-07-29T02:05:54;13.02;;;11.52;;
81209;SDS011;70685;52.496;13.420;2023-07-29T02:08:19;11.93;;;10.95;;
81209;SDS011;70685;52.496;13.420;2023-07-29T02:10:45;13.40;;;11.68;;
81209;SDS011;70685;52.496;13.420;2023-07-29T02:13:11;13.07;;;11.68;;
81209;SDS011;70685;52.496;13.420;2023-07-29T02:15:39;11.52;;;10.32;;
81209;SDS011;70685;52.496;13.420;2023-07-29T02:18:05;10.93;;;9.88;;
81209;SDS011;70685;52.496;13.420;2023-07-29T02:20:32;12.95;;;11.15;;
81209;SDS011;70685;52.496;13.420;2023-07-29T02:23:01;11.75;;;10.63;;
81209;SDS011;70685;52.496;13.420;2023-07-29T02:25:31;11.18;;;10.23;;
81209;SDS011;70685;52.496;13.420;2023-07-29T02:27:59;13.10;;;11.57;;
81209;SDS011;70685;52.496;13.420;2023-07-29T02:30:25;13.15;;;10.80;;
81209;SDS011;70685;52.496;13.420;2023-07-29T02:32:53;14.93;;;12.23;;
81209;SDS011;70685;52.496;13.420;2023-07-29T02:35:18;14.85;;;12.30;;
81209;SDS011;70685;52.496;13.420;2023-07-29T02:37:44;15.15;;;12.18;;
81209;SDS011;70685;52.496;13.420;2023-07-29T02:40:10;13.75;;;12.35;;
81209;SDS011;70685;52.496;13.420;2023-07-29T02:42:36;12.52;;;11.15;;
81209;SDS011;70685;52.496;13.420;2023-07-29T02:45:02;12.18;;;10.65;;
81209;SDS011;70685;52.496;13.420;2023-07-29T02:47:27;11.50;;;10.50;;
81209;SDS011;70685;52.496;13.420;2023-07-29T02:49:55;13.63;;;11.70;;
81209;SDS011;70685;52.496;13.420;2023-07-29T02:52:24;12.88;;;11.32;;
81209;SDS011;70685;52.496;13.420;2023-07-29T02:54:49;12.38;;;11.18;;
81209;SDS011;70685;52.496;13.420;2023-07-29T02:57:15;13.25;;;11.77;;
81209;SDS011;70685;52.496;13.420;2023-07-29T02:59:42;13.02;;;11.70;;
81209;SDS011;70685;52.496;13.420;2023-07-29T03:02:11;12.10;;;10.87;;
81209;SDS011;70685;52.496;13.420;2023-07-29T03:04:36;14.65;;;11.85;;
81209;SDS011;70685;52.496;13.420;2023-07-29T03:07:02;13.80;;;10.75;;
81209;SDS011;70685;52.496;13.420;2023-07-29T03:09:31;10.77;;;9.88;;
81209;SDS011;70685;52.496;13.420;2023-07-29T03:11:58;16.65;;;10.95;;
81209;SDS011;70685;52.496;13.420;2023-07-29T03:14:26;11.43;;;10.23;;
81209;SDS011;70685;52.496;13.420;2023-07-29T03:16:52;13.50;;;10.63;;
81209;SDS011;70685;52.496;13.420;2023-07-29T03:19:20;12.63;;;11.25;;
81209;SDS011;70685;52.496;13.420;2023-07-29T03:21:46;12.57;;;10.88;;
81209;SDS011;70685;52.496;13.420;2023-07-29T03:24:14;15.20;;;11.27;;
81209;SDS011;70685;52.496;13.420;2023-07-29T03:26:39;15.25;;;11.25;;
81209;SDS011;70685;52.496;13.420;2023-07-29T03:29:05;14.15;;;10.35;;
81209;SDS011;70685;52.496;13.420;2023-07-29T03:31:33;12.85;;;11.55;;
81209;SDS011;70685;52.496;13.420;2023-07-29T03:34:01;11.88;;;10.77;;
81209;SDS011;70685;52.496;13.420;2023-07-29T03:36:26;13.98;;;10.48;;
81209;SDS011;70685;52.496;13.420;2023-07-29T03:38:54;14.45;;;11.65;;
81209;SDS011;70685;52.496;13.420;2023-07-29T03:41:23;10.68;;;9.68;;
81209;SDS011;70685;52.496;13.420;2023-07-29T03:43:51;11.32;;;10.30;;
81209;SDS011;70685;52.496;13.420;2023-07-29T03:46:16;10.73;;;9.57;;
81209;SDS011;70685;52.496;13.420;2023-07-29T03:48:46;10.90;;;9.77;;
81209;SDS011;70685;52.496;13.420;2023-07-29T03:51:12;11.88;;;9.38;;
81209;SDS011;70685;52.496;13.420;2023-07-29T03:53:38;9.60;;;8.95;;
81209;SDS011;70685;52.496;13.420;2023-07-29T03:56:04;10.48;;;9.43;;
81209;SDS011;70685;52.496;13.420;2023-07-29T03:58:31;9.65;;;8.95;;
81209;SDS011;70685;52.496;13.420;2023-07-29T04:01:00;9.30;;;8.60;;
81209;SDS011;70685;52.496;13.420;2023-07-29T04:03:25;9.70;;;9.00;;
81209;SDS011;70685;52.496;13.420;2023-07-29T04:05:51;9.77;;;8.90;;
81209;SDS011;70685;52.496;13.420;2023-07-29T04:08:17;9.20;;;8.55;;
81209;SDS011;70685;52.496;13.420;2023-07-29T04:10:43;9.98;;;8.77;;
81209;SDS011;70685;52.496;13.420;2023-07-29T04:13:09;9.90;;;9.23;;
81209;SDS011;70685;52.496;13.420;2023-07-29T04:15:35;9.15;;;8.45;;
81209;SDS011;70685;52.496;13.420;2023-07-29T04:18:01;8.98;;;8.48;;
81209;SDS011;70685;52.496;13.420;2023-07-29T04:20:26;8.52;;;7.82;;
81209;SDS011;70685;52.496;13.420;2023-07-29T04:22:54;9.05;;;8.10;;
81209;SDS011;70685;52.496;13.420;2023-07-29T04:25:20;11.27;;;8.15;;
81209;SDS011;70685;52.496;13.420;2023-07-29T04:27:50;8.60;;;7.53;;
81209;SDS011;70685;52.496;13.420;2023-07-29T04:30:16;8.02;;;7.53;;
81209;SDS011;70685;52.496;13.420;2023-07-29T04:32:41;7.90;;;7.30;;
81209;SDS011;70685;52.496;13.420;2023-07-29T04:35:08;7.63;;;7.22;;
81209;SDS011;70685;52.496;13.420;2023-07-29T04:37:36;9.98;;;7.20;;
81209;SDS011;70685;52.496;13.420;2023-07-29T04:40:01;7.45;;;7.03;;
81209;SDS011;70685;52.496;13.420;2023-07-29T04:42:30;7.78;;;7.28;;
81209;SDS011;70685;52.496;13.420;2023-07-29T04:44:58;8.05;;;7.45;;
81209;SDS011;70685;52.496;13.420;2023-07-29T04:47:26;8.35;;;7.20;;
81209;SDS011;70685;52.496;13.420;2023-07-29T04:49:53;7.32;;;6.82;;
81209;SDS011;70685;52.496;13.420;2023-07-29T04:52:23;6.88;;;6.43;;
81209;SDS011;70685;52.496;13.420;2023-07-29T04:54:51;7.45;;;6.95;;
81209;SDS011;70685;52.496;13.420;2023-07-29T04:57:17;6.47;;;6.13;;
81209;SDS011;70685;52.496;13.420;2023-07-29T04:59:45;7.35;;;6.80;;
81209;SDS011;70685;52.496;13.420;2023-07-29T05:02:10;6.60;;;6.30;;
81209;SDS011;70685;52.496;13.420;2023-07-29T05:04:36;7.13;;;6.20;;
81209;SDS011;70685;52.496;13.420;2023-07-29T05:07:02;6.40;;;5.90;;
81209;SDS011;70685;52.496;13.420;2023-07-29T05:09:30;8.68;;;5.82;;
81209;SDS011;70685;52.496;13.420;2023-07-29T05:11:58;6.10;;;5.72;;
81209;SDS011;70685;52.496;13.420;2023-07-29T05:14:23;5.88;;;5.47;;
81209;SDS011;70685;52.496;13.420;2023-07-29T05:16:49;6.25;;;5.85;;
81209;SDS011;70685;52.496;13.420;2023-07-29T05:19:17;6.35;;;5.95;;
81209;SDS011;70685;52.496;13.420;2023-07-29T05:21:47;6.15;;;5.78;;
81209;SDS011;70685;52.496;13.420;2023-07-29T05:24:13;6.33;;;5.80;;
81209;SDS011;70685;52.496;13.420;2023-07-29T05:26:39;6.30;;;5.80;;
81209;SDS011;70685;52.496;13.420;2023-07-29T05:29:04;5.88;;;5.57;;
81209;SDS011;70685;52.496;13.420;2023-07-29T05:31:32;9.57;;;6.35;;
81209;SDS011;70685;52.496;13.420;2023-07-29T05:33:58;5.53;;;5.13;;
81209;SDS011;70685;52.496;13.420;2023-07-29T05:36:28;5.50;;;5.20;;
81209;SDS011;70685;52.496;13.420;2023-07-29T05:38:56;5.50;;;5.20;;
81209;SDS011;70685;52.496;13.420;2023-07-29T05:41:22;5.03;;;4.63;;
81209;SDS011;70685;52.496;13.420;2023-07-29T05:43:47;5.50;;;5.03;;
81209;SDS011;70685;52.496;13.420;2023-07-29T05:46:13;5.05;;;4.75;;
81209;SDS011;70685;52.496;13.420;2023-07-29T05:48:39;5.57;;;5.28;;
81209;SDS011;70685;52.496;13.420;2023-07-29T05:51:07;5.47;;;5.18;;
81209;SDS011;70685;52.496;13.420;2023-07-29T05:53:32;5.78;;;5.18;;
81209;SDS011;70685;52.496;13.420;2023-07-29T05:56:03;4.78;;;4.47;;
81209;SDS011;70685;52.496;13.420;2023-07-29T05:58:28;8.00;;;4.30;;
81209;SDS011;70685;52.496;13.420;2023-07-29T06:00:57;4.75;;;4.35;;
81209;SDS011;70685;52.496;13.420;2023-07-29T06:03:23;4.53;;;4.22;;
81209;SDS011;70685;52.496;13.420;2023-07-29T06:08:17;3.67;;;3.47;;
81209;SDS011;70685;52.496;13.420;2023-07-29T06:10:45;9.10;;;5.22;;
81209;SDS011;70685;52.496;13.420;2023-07-29T06:13:11;3.30;;;3.20;;
81209;SDS011;70685;52.496;13.420;2023-07-29T06:15:36;3.15;;;3.05;;
81209;SDS011;70685;52.496;13.420;2023-07-29T06:18:02;3.53;;;3.33;;
81209;SDS011;70685;52.496;13.420;2023-07-29T06:20:28;3.70;;;3.50;;
81209;SDS011;70685;52.496;13.420;2023-07-29T06:22:56;6.57;;;6.03;;
81209;SDS011;70685;52.496;13.420;2023-07-29T06:25:21;3.72;;;3.53;;
81209;SDS011;70685;52.496;13.420;2023-07-29T06:27:47;3.40;;;3.20;;
81209;SDS011;70685;52.496;13.420;2023-07-29T06:30:23;3.45;;;3.15;;
81209;SDS011;70685;52.496;13.420;2023-07-29T06:32:48;4.85;;;4.55;;
81209;SDS011;70685;52.496;13.420;2023-07-29T06:35:14;3.08;;;2.80;;
81209;SDS011;70685;52.496;13.420;2023-07-29T06:37:42;4.00;;;3.80;;
81209;SDS011;70685;52.496;13.420;2023-07-29T06:40:08;3.40;;;2.65;;
81209;SDS011;70685;52.496;13.420;2023-07-29T06:42:38;2.83;;;2.72;;
81209;SDS011;70685;52.496;13.420;2023-07-29T06:45:04;3.45;;;3.15;;
81209;SDS011;70685;52.496;13.420;2023-07-29T06:47:30;3.22;;;2.95;;
81209;SDS011;70685;52.496;13.420;2023-07-29T06:49:58;3.08;;;2.88;;
81209;SDS011;70685;52.496;13.420;2023-07-29T06:52:27;2.83;;;2.63;;
81209;SDS011;70685;52.496;13.420;2023-07-29T06:54:53;2.90;;;2.60;;
81209;SDS011;70685;52.496;13.420;2023-07-29T06:57:18;3.08;;;2.75;;
81209;SDS011;70685;52.496;13.420;2023-07-29T06:59:44;3.03;;;2.90;;
81209;SDS011;70685;52.496;13.420;2023-07-29T07:02:11;2.78;;;2.55;;
81209;SDS011;70685;52.496;13.420;2023-07-29T07:07:05;2.92;;;2.67;;
81209;SDS011;70685;52.496;13.420;2023-07-29T07:09:33;3.17;;;2.88;;
81209;SDS011;70685;52.496;13.420;2023-07-29T07:14:24;6.88;;;6.38;;
81209;SDS011;70685;52.496;13.420;2023-07-29T07:16:50;4.68;;;4.47;;
81209;SDS011;70685;52.496;13.420;2023-07-29T07:19:16;9.70;;;8.88;;
81209;SDS011;70685;52.496;13.420;2023-07-29T07:21:44;4.05;;;3.58;;
81209;SDS011;70685;52.496;13.420;2023-07-29T07:24:10;3.67;;;3.38;;
81209;SDS011;70685;52.496;13.420;2023-07-29T07:26:36;4.00;;;3.80;;
81209;SDS011;70685;52.496;13.420;2023-07-29T07:29:01;3.72;;;3.33;;
81209;SDS011;70685;52.496;13.420;2023-07-29T07:31:27;4.05;;;3.75;;
81209;SDS011;70685;52.496;13.420;2023-07-29T07:33:53;3.65;;;3.35;;
81209;SDS011;70685;52.496;13.420;2023-07-29T07:36:18;3.28;;;3.08;;
81209;SDS011;70685;52.496;13.420;2023-07-29T07:38:44;3.40;;;3.20;;
81209;SDS011;70685;52.496;13.420;2023-07-29T07:41:09;3.70;;;2.88;;
81209;SDS011;70685;52.496;13.420;2023-07-29T07:43:35;3.13;;;3.03;;
81209;SDS011;70685;52.496;13.420;2023-07-29T07:46:01;3.20;;;3.00;;
81209;SDS011;70685;52.496;13.420;2023-07-29T07:48:32;4.00;;;3.80;;
81209;SDS011;70685;52.496;13.420;2023-07-29T07:53:23;2.85;;;2.75;;
81209;SDS011;70685;52.496;13.420;2023-07-29T07:55:50;4.47;;;3.28;;
81209;SDS011;70685;52.496;13.420;2023-07-29T07:58:19;3.15;;;2.95;;
81209;SDS011;70685;52.496;13.420;2023-07-29T08:00:44;2.88;;;2.78;;
81209;SDS011;70685;52.496;13.420;2023-07-29T08:03:10;3.10;;;2.90;;
81209;SDS011;70685;52.496;13.420;2023-07-29T08:05:35;3.35;;;3.15;;
81209;SDS011;70685;52.496;13.420;2023-07-29T08:08:03;3.97;;;2.70;;
81209;SDS011;70685;52.496;13.420;2023-07-29T08:10:29;3.80;;;3.60;;
81209;SDS011;70685;52.496;13.420;2023-07-29T08:12:54;2.85;;;2.70;;
81209;SDS011;70685;52.496;13.420;2023-07-29T08:15:20;3.85;;;2.53;;
81209;SDS011;70685;52.496;13.420;2023-07-29T08:17:46;2.67;;;2.58;;
81209;SDS011;70685;52.496;13.420;2023-07-29T08:20:11;2.75;;;2.65;;
81209;SDS011;70685;52.496;13.420;2023-07-29T08:22:37;2.75;;;2.50;;
81209;SDS011;70685;52.496;13.420;2023-07-29T08:25:02;2.38;;;2.28;;
81209;SDS011;70685;52.496;13.420;2023-07-29T08:27:30;2.30;;;2.20;;
81209;SDS011;70685;52.496;13.420;2023-07-29T08:30:01;2.45;;;2.10;;
81209;SDS011;70685;52.496;13.420;2023-07-29T08:32:27;2.75;;;2.42;;
81209;SDS011;70685;52.496;13.420;2023-07-29T08:34:53;5.18;;;2.40;;
81209;SDS011;70685;52.496;13.420;2023-07-29T08:37:23;2.15;;;2.05;;
81209;SDS011;70685;52.496;13.420;2023-07-29T08:39:54;2.28;;;2.17;;
81209;SDS011;70685;52.496;13.420;2023-07-29T08:42:20;2.30;;;2.20;;
81209;SDS011;70685;52.496;13.420;2023-07-29T08:44:48;2.85;;;2.65;;
81209;SDS011;70685;52.496;13.420;2023-07-29T08:47:16;2.50;;;2.40;;
81209;SDS011;70685;52.496;13.420;2023-07-29T08:49:44;2.42;;;2.22;;
81209;SDS011;70685;52.496;13.420;2023-07-29T08:52:11;4.32;;;2.65;;
81209;SDS011;70685;52.496;13.420;2023-07-29T08:54:38;5.80;;;2.83;;
81209;SDS011;70685;52.496;13.420;2023-07-29T08:57:06;4.95;;;3.45;;
81209;SDS011;70685;52.496;13.420;2023-07-29T08:59:34;2.85;;;2.65;;
81209;SDS011;70685;52.496;13.420;2023-07-29T09:02:02;3.03;;;2.83;;
81209;SDS011;70685;52.496;13.420;2023-07-29T09:04:30;2.83;;;2.53;;
81209;SDS011;70685;52.496;13.420;2023-07-29T09:06:59;2.35;;;2.15;;
81209;SDS011;70685;52.496;13.420;2023-07-29T09:09:25;3.17;;;2.70;;
81209;SDS011;70685;52.496;13.420;2023-07-29T09:11:51;3.72;;;3.47;;
81209;SDS011;70685;52.496;13.420;2023-07-29T09:14:17;2.42;;;2.33;;
81209;SDS011;70685;52.496;13.420;2023-07-29T09:16:43;2.40;;;2.30;;
81209;SDS011;70685;52.496;13.420;2023-07-29T09:19:09;2.40;;;2.30;;
81209;SDS011;70685;52.496;13.420;2023-07-29T09:21:37;2.85;;;2.38;;
81209;SDS011;70685;52.496;13.420;2023-07-29T09:24:07;2.45;;;2.30;;
81209;SDS011;70685;52.496;13.420;2023-07-29T09:26:33;2.20;;;2.10;;
81209;SDS011;70685;52.496;13.420;2023-07-29T09:29:00;2.08;;;1.98;;
81209;SDS011;70685;52.496;13.420;2023-07-29T09:31:26;2.15;;;1.90;;
81209;SDS011;70685;52.496;13.420;2023-07-29T09:34:00;2.40;;;2.20;;
81209;SDS011;70685;52.496;13.420;2023-07-29T09:36:29;2.40;;;2.30;;
81209;SDS011;70685;52.496;13.420;2023-07-29T09:38:56;2.35;;;2.03;;
81209;SDS011;70685;52.496;13.420;2023-07-29T09:41:25;1.75;;;1.75;;
81209;SDS011;70685;52.496;13.420;2023-07-29T09:43:55;2.50;;;2.00;;
81209;SDS011;70685;52.496;13.420;2023-07-29T09:46:30;2.00;;;1.90;;
81209;SDS011;70685;52.496;13.420;2023-07-29T09:48:58;1.80;;;1.70;;
81209;SDS011;70685;52.496;13.420;2023-07-29T09:51:24;2.33;;;1.85;;
81209;SDS011;70685;52.496;13.420;2023-07-29T09:53:52;2.47;;;1.80;;
81209;SDS011;70685;52.496;13.420;2023-07-29T09:58:50;2.00;;;1.90;;
81209;SDS011;70685;52.496;13.420;2023-07-29T10:01:20;1.80;;;1.80;;
81209;SDS011;70685;52.496;13.420;2023-07-29T10:03:48;1.65;;;1.65;;
81209;SDS011;70685;52.496;13.420;2023-07-29T10:11:10;5.63;;;1.80;;
81209;SDS011;70685;52.496;13.420;2023-07-29T10:13:37;2.15;;;2.05;;
81209;SDS011;70685;52.496;13.420;2023-07-29T10:16:03;1.45;;;1.45;;
81209;SDS011;70685;52.496;13.420;2023-07-29T10:18:31;1.70;;;1.70;;
81209;SDS011;70685;52.496;13.420;2023-07-29T10:20:58;1.97;;;1.87;;
81209;SDS011;70685;52.496;13.420;2023-07-29T10:23:31;2.22;;;1.92;;
81209;SDS011;70685;52.496;13.420;2023-07-29T10:26:03;2.00;;;1.60;;
81209;SDS011;70685;52.496;13.420;2023-07-29T10:28:30;1.95;;;1.45;;
81209;SDS011;70685;52.496;13.420;2023-07-29T10:31:00;1.80;;;1.70;;
81209;SDS011;70685;52.496;13.420;2023-07-29T10:35:59;1.67;;;1.60;;
81209;SDS011;70685;52.496;13.420;2023-07-29T10:38:25;2.30;;;1.80;;
81209;SDS011;70685;52.496;13.420;2023-07-29T10:40:52;3.00;;;1.42;;
81209;SDS011;70685;52.496;13.420;2023-07-29T10:43:27;6.80;;;1.85;;
81209;SDS011;70685;52.496;13.420;2023-07-29T10:45:57;1.85;;;1.75;;
81209;SDS011;70685;52.496;13.420;2023-07-29T10:48:41;1.77;;;1.67;;
81209;SDS011;70685;52.496;13.420;2023-07-29T10:54:03;1.65;;;1.50;;
81209;SDS011;70685;52.496;13.420;2023-07-29T10:56:39;1.45;;;1.30;;
81209;SDS011;70685;52.496;13.420;2023-07-29T11:01:38;1.83;;;1.73;;
81209;SDS011;70685;52.496;13.420;2023-07-29T11:20:09;1.88;;;1.50;;
81209;SDS011;70685;52.496;13.420;2023-07-29T11:22:36;4.60;;;2.03;;
81209;SDS011;70685;52.496;13.420;2023-07-29T11:25:02;3.83;;;1.83;;
81209;SDS011;70685;52.496;13.420;2023-07-29T11:27:31;2.33;;;1.63;;
81209;SDS011;70685;52.496;13.420;2023-07-29T11:30:02;2.90;;;1.70;;
81209;SDS011;70685;52.496;13.420;2023-07-29T11:32:32;3.58;;;1.48;;
81209;SDS011;70685;52.496;13.420;2023-07-29T11:35:07;2.15;;;1.45;;
81209;SDS011;70685;52.496;13.420;2023-07-29T11:37:36;2.67;;;2.38;;
81209;SDS011;70685;52.496;13.420;2023-07-29T11:40:04;2.80;;;1.65;;
81209;SDS011;70685;52.496;13.420;2023-07-29T11:42:32;1.80;;;1.70;;
81209;SDS011;70685;52.496;13.420;2023-07-29T11:44:59;1.67;;;1.58;;
81209;SDS011;70685;52.496;13.420;2023-07-29T11:47:28;1.60;;;1.50;;
81209;SDS011;70685;52.496;13.420;2023-07-29T11:49:54;1.73;;;1.63;;
81209;SDS011;70685;52.496;13.420;2023-07-29T11:52:25;1.23;;;1.23;;
81209;SDS011;70685;52.496;13.420;2023-07-29T11:54:52;2.08;;;1.98;;
81209;SDS011;70685;52.496;13.420;2023-07-29T11:57:18;1.80;;;1.70;;
81209;SDS011;70685;52.496;13.420;2023-07-29T11:59:44;5.40;;;2.05;;
81209;SDS011;70685;52.496;13.420;2023-07-29T12:02:16;3.13;;;2.85;;
81209;SDS011;70685;52.496;13.420;2023-07-29T12:04:46;3.47;;;2.85;;
81209;SDS011;70685;52.496;13.420;2023-07-29T12:07:16;4.68;;;4.22;;
81209;SDS011;70685;52.496;13.420;2023-07-29T12:09:46;3.33;;;3.05;;
81209;SDS011;70685;52.496;13.420;2023-07-29T12:12:17;3.47;;;3.15;;
81209;SDS011;70685;52.496;13.420;2023-07-29T12:14:44;3.65;;;2.78;;
81209;SDS011;70685;52.496;13.420;2023-07-29T12:17:11;3.47;;;2.67;;
81209;SDS011;70685;52.496;13.420;2023-07-29T12:19:37;2.22;;;1.88;;
81209;SDS011;70685;52.496;13.420;2023-07-29T12:22:05;1.80;;;1.70;;
81209;SDS011;70685;52.496;13.420;2023-07-29T12:24:33;2.95;;;1.55;;
81209;SDS011;70685;52.496;13.420;2023-07-29T12:27:00;2.00;;;1.90;;
81209;SDS011;70685;52.496;13.420;2023-07-29T12:29:26;3.30;;;2.25;;
81209;SDS011;70685;52.496;13.420;2023-07-29T12:31:59;1.70;;;1.60;;
81209;SDS011;70685;52.496;13.420;2023-07-29T12:34:27;2.72;;;1.90;;
81209;SDS011;70685;52.496;13.420;2023-07-29T12:36:54;3.28;;;1.80;;
81209;SDS011;70685;52.496;13.420;2023-07-29T12:39:41;2.00;;;1.90;;
81209;SDS011;70685;52.496;13.420;2023-07-29T12:42:07;1.88;;;1.77;;
81209;SDS011;70685;52.496;13.420;2023-07-29T12:44:38;1.70;;;1.50;;
81209;SDS011;70685;52.496;13.420;2023-07-29T12:47:04;1.92;;;1.83;;
81209;SDS011;70685;52.496;13.420;2023-07-29T12:49:34;1.95;;;1.85;;
81209;SDS011;70685;52.496;13.420;2023-07-29T12:52:04;3.83;;;1.88;;
81209;SDS011;70685;52.496;13.420;2023-07-29T12:54:30;1.80;;;1.70;;
81209;SDS011;70685;52.496;13.420;2023-07-29T12:56:58;1.92;;;1.83;;
81209;SDS011;70685;52.496;13.420;2023-07-29T12:59:24;1.60;;;1.50;;
81209;SDS011;70685;52.496;13.420;2023-07-29T13:01:49;1.67;;;1.58;;
81209;SDS011;70685;52.496;13.420;2023-07-29T13:04:15;1.58;;;1.48;;
81209;SDS011;70685;52.496;13.420;2023-07-29T13:06:41;1.88;;;1.45;;
81209;SDS011;70685;52.496;13.420;2023-07-29T13:09:06;1.98;;;1.88;;
81209;SDS011;70685;52.496;13.420;2023-07-29T13:11:32;2.08;;;1.70;;
81209;SDS011;70685;52.496;13.420;2023-07-29T13:13:58;2.33;;;1.88;;
81209;SDS011;70685;52.496;13.420;2023-07-29T13:16:25;1.88;;;1.77;;
81209;SDS011;70685;52.496;13.420;2023-07-29T13:18:51;1.80;;;1.70;;
81209;SDS011;70685;52.496;13.420;2023-07-29T13:21:19;1.92;;;1.83;;
81209;SDS011;70685;52.496;13.420;2023-07-29T13:23:45;1.90;;;1.80;;
81209;SDS011;70685;52.496;13.420;2023-07-29T13:26:15;2.17;;;2.05;;
81209;SDS011;70685;52.496;13.420;2023-07-29T13:28:42;2.50;;;2.30;;
81209;SDS011;70685;52.496;13.420;2023-07-29T13:31:10;2.17;;;2.08;;
81209;SDS011;70685;52.496;13.420;2023-07-29T13:33:37;1.95;;;1.85;;
81209;SDS011;70685;52.496;13.420;2023-07-29T13:36:02;2.15;;;1.80;;
81209;SDS011;70685;52.496;13.420;2023-07-29T13:38:30;1.80;;;1.70;;
81209;SDS011;70685;52.496;13.420;2023-07-29T13:40:56;5.82;;;1.50;;
81209;SDS011;70685;52.496;13.420;2023-07-29T13:43:22;1.95;;;1.85;;
81209;SDS011;70685;52.496;13.420;2023-07-29T13:45:48;1.77;;;1.60;;
81209;SDS011;70685;52.496;13.420;2023-07-29T13:48:15;1.48;;;1.38;;
81209;SDS011;70685;52.496;13.420;2023-07-29T13:50:43;1.33;;;1.33;;
81209;SDS011;70685;52.496;13.420;2023-07-29T13:53:09;1.30;;;1.30;;
81209;SDS011;70685;52.496;13.420;2023-07-29T13:55:37;1.52;;;1.50;;
81209;SDS011;70685;52.496;13.420;2023-07-29T13:58:03;2.17;;;1.30;;
81209;SDS011;70685;52.496;13.420;2023-07-29T14:00:29;1.35;;;1.33;;
81209;SDS011;70685;52.496;13.420;2023-07-29T14:02:54;18.50;;;16.77;;
81209;SDS011;70685;52.496;13.420;2023-07-29T14:05:20;52.75;;;43.78;;
81209;SDS011;70685;52.496;13.420;2023-07-29T14:07:48;95.25;;;77.00;;
81209;SDS011;70685;52.496;13.420;2023-07-29T14:10:16;43.25;;;38.50;;
81209;SDS011;70685;52.496;13.420;2023-07-29T14:12:42;55.10;;;47.42;;
81209;SDS011;70685;52.496;13.420;2023-07-29T14:15:07;31.73;;;28.27;;
81209;SDS011;70685;52.496;13.420;2023-07-29T14:17:33;13.93;;;12.75;;
81209;SDS011;70685;52.496;13.420;2023-07-29T14:19:59;13.18;;;11.80;;
81209;SDS011;70685;52.496;13.420;2023-07-29T14:22:24;32.60;;;29.65;;
81209;SDS011;70685;52.496;13.420;2023-07-29T14:24:50;20.95;;;19.20;;
81209;SDS011;70685;52.496;13.420;2023-07-29T14:27:15;39.72;;;36.03;;
81209;SDS011;70685;52.496;13.420;2023-07-29T14:29:41;23.15;;;21.15;;
81209;SDS011;70685;52.496;13.420;2023-07-29T14:32:09;16.70;;;15.45;;
81209;SDS011;70685;52.496;13.420;2023-07-29T14:34:37;9.98;;;9.38;;
81209;SDS011;70685;52.496;13.420;2023-07-29T14:37:03;29.67;;;27.33;;
81209;SDS011;70685;52.496;13.420;2023-07-29T14:39:30;15.50;;;14.60;;
81209;SDS011;70685;52.496;13.420;2023-07-29T14:41:55;3.92;;;3.78;;
81209;SDS011;70685;52.496;13.420;2023-07-29T14:44:21;7.10;;;6.70;;
81209;SDS011;70685;52.496;13.420;2023-07-29T14:46:46;16.13;;;14.73;;
81209;SDS011;70685;52.496;13.420;2023-07-29T14:49:16;19.87;;;18.57;;
81209;SDS011;70685;52.496;13.420;2023-07-29T14:51:42;5.40;;;5.10;;
81209;SDS011;70685;52.496;13.420;2023-07-29T14:54:08;9.15;;;8.68;;
81209;SDS011;70685;52.496;13.420;2023-07-29T14:56:33;4.38;;;4.18;;
81209;SDS011;70685;52.496;13.420;2023-07-29T14:59:01;61.47;;;43.30;;
81209;SDS011;70685;52.496;13.420;2023-07-29T15:01:27;45.47;;;35.38;;
81209;SDS011;70685;52.496;13.420;2023-07-29T15:03:53;42.80;;;30.88;;
81209;SDS011;70685;52.496;13.420;2023-07-29T15:06:18;51.65;;;36.97;;
81209;SDS011;70685;52.496;13.420;2023-07-29T15:08:46;56.97;;;41.70;;
81209;SDS011;70685;52.496;13.420;2023-07-29T15:11:12;63.08;;;47.33;;
81209;SDS011;70685;52.496;13.420;2023-07-29T15:13:40;43.30;;;32.00;;